createdAt,value
2022-08-05T00:03:21.474Z,5.40
2022-08-05T00:09:24.145Z,4.32
2022-08-05T00:15:55.069Z,3.92
2022-08-05T00:21:48.584Z,4.70
2022-08-05T00:34:55.494Z,3.53
2022-08-05T00:40:17.953Z,4.63
2022-08-05T00:46:42.601Z,4.22
2022-08-05T00:52:46.828Z,3.97
2022-08-05T00:58:49.203Z,4.50
2022-08-05T01:04:51.490Z,3.97
2022-08-05T01:11:33.394Z,3.88
2022-08-05T01:17:43.978Z,4.97
2022-08-05T01:23:53.067Z,4.32
2022-08-05T01:30:01.824Z,4.30
2022-08-05T01:36:12.850Z,4.10
2022-08-05T01:42:24.742Z,3.80
2022-08-05T01:48:32.459Z,4.07
2022-08-05T01:54:53.331Z,3.90
2022-08-05T02:00:59.023Z,4.25
2022-08-05T02:07:03.527Z,4.60
2022-08-05T02:13:16.471Z,3.92
2022-08-05T02:19:35.159Z,3.80
2022-08-05T02:25:50.099Z,5.30
2022-08-05T02:31:54.699Z,4.13
2022-08-05T02:38:00.323Z,4.20
2022-08-05T02:44:11.922Z,5.30
2022-08-05T02:50:18.175Z,6.05
2022-08-05T02:56:21.062Z,5.95
2022-08-05T03:02:29.989Z,5.70
2022-08-05T03:08:33.001Z,5.40
2022-08-05T03:14:45.790Z,4.80
2022-08-05T03:20:49.085Z,5.20
2022-08-05T03:26:52.835Z,4.70
2022-08-05T03:38:57.522Z,4.85
2022-08-05T03:52:37.709Z,5.50
2022-08-05T03:57:45.861Z,5.50
2022-08-05T04:04:08.853Z,5.32
2022-08-05T04:10:12.771Z,5.63
2022-08-05T04:16:25.048Z,5.05
2022-08-05T04:22:27.885Z,5.38
2022-08-05T04:28:30.830Z,5.68
2022-08-05T04:34:35.313Z,5.28
2022-08-05T04:40:43.735Z,5.57
2022-08-05T04:46:52.867Z,7.13
2022-08-05T04:52:55.249Z,5.30
2022-08-05T04:58:58.942Z,4.68
2022-08-05T05:05:02.358Z,5.00
2022-08-05T05:11:05.910Z,4.88
2022-08-05T05:17:19.863Z,4.10
2022-08-05T05:23:26.111Z,4.95
2022-08-05T05:30:03.646Z,4.90
2022-08-05T05:35:50.877Z,4.35
2022-08-05T05:41:54.620Z,4.75
2022-08-05T05:48:06.555Z,8.98
2022-08-05T05:54:11.618Z,9.20
2022-08-05T06:00:19.086Z,4.60
2022-08-05T06:06:22.361Z,8.57
2022-08-05T06:12:27.250Z,3.40
2022-08-05T06:18:31.841Z,3.05
2022-08-05T06:24:48.283Z,3.40
2022-08-05T06:30:51.359Z,3.35
2022-08-05T06:36:58.115Z,2.92
2022-08-05T06:43:01.217Z,2.72
2022-08-05T06:49:03.626Z,3.92
2022-08-05T06:55:10.093Z,3.60
2022-08-05T07:01:13.298Z,3.22
2022-08-05T07:07:15.798Z,3.10
2022-08-05T07:13:58.716Z,3.53
2022-08-05T07:20:32.272Z,3.67
2022-08-05T07:26:25.730Z,4.60
2022-08-05T07:32:28.655Z,3.90
2022-08-05T07:38:33.335Z,4.63
2022-08-05T07:44:36.891Z,3.05
2022-08-05T07:50:41.793Z,8.43
2022-08-05T07:57:02.477Z,3.95
2022-08-05T08:03:14.309Z,2.65
2022-08-05T08:09:19.680Z,3.08
2022-08-05T08:15:37.353Z,3.00
2022-08-05T08:21:47.961Z,2.95
2022-08-05T08:27:51.289Z,3.00
2022-08-05T08:33:54.081Z,2.75
2022-08-05T08:39:56.597Z,2.83
2022-08-05T08:46:00.336Z,7.00
2022-08-05T08:52:13.634Z,2.72
2022-08-05T08:58:17.666Z,3.03
2022-08-05T09:04:19.882Z,2.58
2022-08-05T09:10:27.773Z,2.17
2022-08-05T09:16:32.035Z,2.63
2022-08-05T09:23:05.440Z,2.42
2022-08-05T09:29:09.995Z,2.65
2022-08-05T09:35:26.722Z,2.22
2022-08-05T09:41:33.168Z,2.38
2022-08-05T09:47:55.827Z,2.45
2022-08-05T09:53:58.984Z,2.30
2022-08-05T10:00:10.674Z,2.20
2022-08-05T10:06:15.447Z,2.30
2022-08-05T10:12:33.356Z,2.85
2022-08-05T10:18:37.400Z,4.97
2022-08-05T10:24:40.403Z,7.00
2022-08-05T10:32:48.283Z,2.85
2022-08-05T10:37:05.415Z,3.50
2022-08-05T10:43:15.987Z,2.60
2022-08-05T10:49:27.198Z,2.90
2022-08-05T10:56:03.566Z,2.47
2022-08-05T11:02:34.503Z,2.75
2022-08-05T11:08:37.120Z,2.70
2022-08-05T11:15:11.962Z,2.47
2022-08-05T11:21:11.349Z,2.78
2022-08-05T11:27:51.237Z,2.38
2022-08-05T11:33:52.545Z,3.03
2022-08-05T11:40:02.643Z,2.20
2022-08-05T11:46:27.290Z,2.70
2022-08-05T11:52:29.939Z,2.30
2022-08-05T11:58:41.165Z,2.47
2022-08-05T12:04:59.560Z,2.53
2022-08-05T12:11:06.127Z,2.85
2022-08-05T12:18:00.565Z,2.70
2022-08-05T12:23:42.975Z,2.90
2022-08-05T12:29:45.690Z,2.38
2022-08-05T12:36:01.257Z,2.92
2022-08-05T12:42:03.816Z,2.60
2022-08-05T12:48:17.157Z,3.10
2022-08-05T12:54:32.574Z,2.85
2022-08-05T13:02:00.556Z,3.35
2022-08-05T13:07:10.445Z,4.93
2022-08-05T13:14:06.266Z,3.88
2022-08-05T13:20:05.639Z,2.78
2022-08-05T13:26:07.981Z,3.60
2022-08-05T13:32:13.718Z,3.03
2022-08-05T13:38:30.784Z,2.70
2022-08-05T13:44:36.750Z,2.78
2022-08-05T13:50:38.948Z,3.08
2022-08-05T13:56:50.889Z,2.55
2022-08-05T14:02:53.949Z,3.13
2022-08-05T14:08:56.569Z,2.75
2022-08-05T14:16:04.402Z,2.50
2022-08-05T14:22:10.322Z,6.00
2022-08-05T14:27:48.892Z,2.80
2022-08-05T14:33:59.592Z,5.13
2022-08-05T14:40:03.329Z,3.13
2022-08-05T14:46:06.685Z,2.70
2022-08-05T14:52:10.169Z,2.75
2022-08-05T14:58:14.622Z,3.08
2022-08-05T15:04:20.465Z,3.17
2022-08-05T15:10:28.611Z,3.10
2022-08-05T15:16:31.950Z,2.95
2022-08-05T15:22:34.139Z,2.88
2022-08-05T15:28:36.642Z,3.67
2022-08-05T15:34:45.932Z,3.78
2022-08-05T15:41:20.792Z,3.22
2022-08-05T15:47:10.541Z,3.53
2022-08-05T15:53:14.440Z,3.47
2022-08-05T15:59:22.031Z,3.58
2022-08-05T16:05:28.442Z,3.60
2022-08-05T16:11:40.000Z,3.08
2022-08-05T16:17:49.700Z,3.75
2022-08-05T16:24:03.305Z,3.92
2022-08-05T16:30:06.644Z,3.70
2022-08-05T16:36:09.086Z,3.38
2022-08-05T16:42:15.105Z,3.97
2022-08-05T16:48:25.397Z,4.07
2022-08-05T16:54:32.932Z,4.35
2022-08-05T17:00:37.698Z,4.03
2022-08-05T17:06:41.899Z,3.90
2022-08-05T17:12:51.802Z,4.03
2022-08-05T17:18:54.742Z,4.13
2022-08-05T17:24:58.794Z,4.47
2022-08-05T17:31:08.399Z,4.65
2022-08-05T17:37:39.779Z,4.13
2022-08-05T17:43:47.295Z,5.75
2022-08-05T17:50:04.090Z,4.68
2022-08-05T17:56:12.667Z,4.65
2022-08-05T18:02:20.142Z,4.53
2022-08-05T18:08:25.533Z,4.82
2022-08-05T18:14:27.823Z,5.35
2022-08-05T18:20:32.388Z,7.47
2022-08-05T18:26:34.783Z,5.38
2022-08-05T18:32:37.329Z,5.22
2022-08-05T18:38:41.969Z,5.57
2022-08-05T18:44:51.737Z,4.53
2022-08-05T18:52:04.500Z,6.28
2022-08-05T18:57:50.119Z,5.50
2022-08-05T19:03:56.706Z,4.95
2022-08-05T19:10:01.389Z,5.88
2022-08-05T19:16:04.483Z,5.00
2022-08-05T19:22:07.065Z,5.07
2022-08-05T19:28:10.916Z,4.72
2022-08-05T19:34:13.416Z,5.07
2022-08-05T19:40:24.316Z,5.07
2022-08-05T19:46:30.198Z,5.45
2022-08-05T19:52:33.141Z,5.15
2022-08-05T19:58:38.452Z,5.28
2022-08-05T20:04:59.210Z,5.03
2022-08-05T20:11:01.917Z,4.32
2022-08-05T20:17:06.876Z,7.05
2022-08-05T20:23:10.127Z,5.35
2022-08-05T20:29:26.588Z,5.68
2022-08-05T20:35:29.911Z,4.40
2022-08-05T20:41:43.266Z,5.20
2022-08-05T20:47:47.000Z,5.05
2022-08-05T20:53:56.442Z,6.47
2022-08-05T21:00:20.107Z,6.47
2022-08-05T21:06:27.712Z,5.32
2022-08-05T21:12:31.017Z,5.63
2022-08-05T21:18:35.821Z,5.95
2022-08-05T21:24:38.208Z,5.93
2022-08-05T21:30:42.049Z,5.75
2022-08-05T21:36:48.965Z,5.93
2022-08-05T21:42:53.914Z,5.95
2022-08-05T21:48:56.953Z,6.28
2022-08-05T21:55:06.444Z,5.82
2022-08-05T22:01:10.705Z,5.10
2022-08-05T22:07:13.242Z,6.15
2022-08-05T22:14:19.680Z,6.10
2022-08-05T22:26:18.755Z,5.55
2022-08-05T22:32:23.160Z,6.28
2022-08-05T22:38:26.449Z,5.18
2022-08-05T22:44:29.389Z,5.55
2022-08-05T22:50:31.636Z,6.07
2022-08-05T22:56:33.979Z,6.78
2022-08-05T23:02:46.389Z,5.50
2022-08-05T23:08:50.328Z,6.57
2022-08-05T23:14:54.615Z,8.43
2022-08-05T23:20:58.436Z,6.25
2022-08-05T23:27:00.693Z,6.78
2022-08-05T23:33:02.970Z,6.75
2022-08-05T23:39:05.191Z,6.53
2022-08-05T23:45:14.153Z,5.63
2022-08-05T23:51:17.955Z,6.40
2022-08-05T23:57:20.847Z,8.75
